Latest Weather Observations for South Johnstone

IDQ60801

Issued at 11:35 pm EST Sunday 20 April 2014 (issued every 30 minutes, with the page automatically refreshed every 10 minutes)

About weather observations | Map of weather stations | Latest weather observations for QLD | Other Formats
Station Details ID: 032037 Name: SOUTH JOHNSTONE EXP STN Lat: -17.61 Lon: 146.00 Height: 18.3 m
Data from the previous 72 hours. | See also: Recent months at South Johnstone
Date/Time
EST
Temp
°C
App
Temp
°C
Dew
Point
Rel
Hum
%
Delta-T
°C
Wind Press
QNH
hPa
Press
MSL
hPa
Rain
since 9 am
mm
Dir
 
Spd
km/h
Gust
km/h
Spd
kts
Gust
kts
20/11:30pm 21.0 24.1 19.6 92 0.9 NNW 2 6 1 3 1015.9 - 0.0
20/11:00pm 21.0 23.7 19.4 90 1.0 NW 4 9 2 5 1016.0 - 0.0
20/10:30pm 20.8 23.4 19.2 90 1.0 WNW 4 9 2 5 1016.0 - 0.0
20/10:00pm 21.0 23.6 19.3 90 1.1 WNW 4 9 2 5 1016.1 - 0.0
20/09:30pm 21.1 24.5 19.4 90 1.1 CALM 0 6 0 3 1016.3 - 0.0
20/09:00pm 21.5 23.7 19.3 87 1.4 W 6 9 3 5 1016.5 1016.4 0.0
20/08:30pm 21.7 24.4 19.5 87 1.4 WNW 4 7 2 4 1016.3 - 0.0
20/08:00pm 22.3 25.0 19.5 84 1.8 WSW 4 9 2 5 1015.9 - 0.0
20/07:30pm 24.5 25.5 17.8 66 4.2 SSW 9 13 5 7 1015.5 - 0.0
20/07:00pm 24.2 25.7 17.6 66 4.1 S 6 13 3 7 1015.4 - 0.0
20/06:30pm 23.4 26.4 18.5 74 3.1 CALM 0 9 0 5 1015.2 - 0.0
20/06:00pm 24.5 26.2 18.0 67 4.1 S 6 7 3 4 1015.0 1014.9 0.0
20/05:30pm 25.3 26.8 18.0 64 4.6 S 7 11 4 6 1014.7 - 0.0
20/05:00pm 26.2 26.4 17.6 59 5.4 SE 13 20 7 11 1014.4 - 0.0
20/04:30pm 26.7 26.1 17.5 57 5.8 SSE 17 24 9 13 1014.1 - 0.0
20/04:00pm 27.3 27.1 17.6 55 6.1 SE 15 24 8 13 1013.8 - 0.0
20/03:30pm 27.5 27.1 17.1 53 6.5 SSE 15 26 8 14 1013.6 - 0.0
20/03:00pm 27.7 27.2 17.0 52 6.7 ESE 15 26 8 14 1013.5 1013.4 0.0
20/02:30pm 27.7 26.9 17.0 52 6.7 SSE 17 26 9 14 1013.6 - 0.0
20/02:00pm 27.7 27.3 17.2 52 6.6 SE 15 26 8 14 1013.8 - 0.0
20/01:30pm 27.7 26.7 16.6 50 6.9 SSE 17 26 9 14 1014.1 - 0.0
20/01:00pm 27.2 26.8 17.1 54 6.3 SE 15 22 8 12 1014.5 - 0.0
20/12:30pm 27.4 26.6 17.0 53 6.5 SSE 17 26 9 14 1014.8 - 0.0
20/12:00pm 27.8 27.4 17.1 52 6.7 SE 15 24 8 13 1015.2 1015.1 0.0
20/11:30am 27.5 26.7 17.1 53 6.5 SE 17 28 9 15 1015.6 - 0.0
20/11:00am 27.3 27.1 17.6 55 6.1 SE 15 24 8 13 1015.9 - 0.0
20/10:30am 27.1 26.5 16.6 52 6.5 ESE 15 20 8 11 1016.2 - 0.0
20/10:00am 26.7 27.3 17.6 57 5.7 SE 11 20 6 11 1016.2 - 0.0
20/09:30am 26.1 27.5 18.6 63 4.8 SE 9 13 5 7 1016.1 - 0.0
20/09:00am 24.2 28.7 21.5 85 1.8 CALM 0 6 0 3 1016.0 1015.9 2.6
20/08:30am 22.1 26.2 20.7 92 0.9 CALM 0 0 0 0 1015.7 - 2.6
20/08:00am 20.5 22.9 19.7 95 0.5 WNW 6 9 3 5 1015.6 - 2.6
20/07:30am 20.2 22.5 19.4 95 0.5 W 6 11 3 6 1015.3 - 2.6
20/07:00am 19.7 21.9 19.1 96 0.4 NW 6 9 3 5 1014.9 - 2.6
20/06:30am 19.2 22.3 18.7 97 0.3 CALM 0 4 0 2 1014.7 - 2.6
20/06:00am 19.2 22.3 18.7 97 0.3 NW 0 0 0 0 1014.3 1014.2 2.6
20/05:30am 19.3 22.4 18.7 96 0.4 CALM 0 0 0 0 1014.0 - 2.6
20/05:00am 19.3 21.1 18.8 97 0.3 WNW 7 9 4 5 1013.9 - 2.6
20/04:30am 19.4 22.6 18.9 97 0.3 CALM 0 2 0 1 1013.8 - 2.6
20/04:00am 19.4 22.6 18.9 97 0.3 CALM 0 0 0 0 1013.8 - 2.6
20/03:30am 19.5 22.8 19.0 97 0.3 CALM 0 0 0 0 1013.8 - 2.6
20/03:00am 19.6 22.9 19.0 96 0.4 CALM 0 6 0 3 1013.9 1013.8 2.6
20/02:30am 19.7 22.1 18.9 95 0.5 WNW 4 9 2 5 1013.9 - 2.6
20/02:00am 19.6 21.7 19.0 96 0.4 WNW 6 9 3 5 1014.0 - 2.6
20/01:30am 19.7 23.0 19.1 96 0.4 CALM 0 0 0 0 1014.1 - 2.6
20/01:00am 19.9 22.1 19.3 96 0.4 WNW 6 9 3 5 1014.4 - 2.6
20/12:30am 20.0 22.7 19.4 96 0.4 W 4 9 2 5 1014.8 - 2.6
20/12:00am 20.1 22.4 19.5 96 0.4 W 6 11 3 6 1015.0 1014.9 2.6
 
Date/Time
EST
Temp
°C
App
Temp
°C
Dew
Point
Rel
Hum
%
Delta-T
°C
Wind Press
QNH
hPa
Press
MSL
hPa
Rain
since 9 am
mm
Dir
 
Spd
km/h
Gust
km/h
Spd
kts
Gust
kts
19/11:30pm 20.3 23.8 19.5 95 0.5 CALM 0 6 0 3 1015.3 - 2.6
19/11:00pm 20.4 23.5 19.6 95 0.5 W 2 7 1 4 1015.4 - 2.6
19/10:30pm 20.6 23.1 19.8 95 0.5 WNW 6 7 3 4 1015.7 - 2.6
19/10:00pm 20.9 23.5 20.0 95 0.6 W 6 13 3 7 1015.6 - 2.6
19/09:30pm 21.2 24.3 20.3 95 0.6 W 4 9 2 5 1015.7 - 2.6
19/09:00pm 21.6 24.8 20.4 93 0.8 WNW 4 7 2 4 1015.6 1015.5 2.6
19/08:30pm 21.8 24.6 20.4 92 0.9 W 6 11 3 6 1015.4 - 2.6
19/08:00pm 21.9 24.5 20.5 92 0.9 W 7 11 4 6 1015.3 - 2.6
19/07:30pm 22.2 25.0 20.5 90 1.1 W 6 9 3 5 1014.8 - 2.6
19/07:00pm 23.1 27.1 20.6 86 1.6 CALM 0 0 0 0 1014.5 - 2.6
19/06:30pm 23.8 27.8 20.6 82 2.1 CALM 0 0 0 0 1014.4 - 2.6
19/06:00pm 25.0 28.3 19.9 73 3.3 S 2 6 1 3 1014.3 1014.2 2.6
19/05:30pm 25.7 27.8 19.3 67 4.1 ESE 7 11 4 6 1014.0 - 2.6
19/05:00pm 26.4 27.2 19.1 64 4.7 SE 13 17 7 9 1013.6 - 2.6
19/04:30pm 26.7 27.6 18.5 60 5.2 ESE 11 19 6 10 1013.6 - 2.6
19/04:00pm 26.7 28.4 19.4 64 4.7 ESE 9 15 5 8 1013.3 - 2.6
19/03:30pm 26.7 27.0 18.0 59 5.5 ESE 13 20 7 11 1013.4 - 2.6
19/03:00pm 28.0 28.6 18.6 56 6.0 E 13 20 7 11 1013.5 1013.4 2.6
19/02:30pm 28.2 28.3 19.1 57 5.9 E 17 26 9 14 1013.6 - 2.6
19/02:00pm 28.2 28.2 18.0 54 6.5 E 15 22 8 12 1013.9 - 2.6
19/01:30pm 27.8 28.8 19.5 60 5.4 E 13 19 7 10 1014.1 - 2.6
19/01:00pm 28.4 29.3 20.0 60 5.5 ENE 15 22 8 12 1014.5 - 2.4
19/12:30pm 27.3 29.1 20.4 66 4.5 E 11 17 6 9 1015.0 - 2.4
19/12:00pm 27.1 28.2 19.7 64 4.8 E 13 19 7 10 1015.4 1015.3 2.4
19/11:30am 27.1 28.3 19.9 64 4.7 E 13 20 7 11 1015.9 - 2.4
19/11:00am 26.3 27.3 19.5 66 4.4 ESE 13 22 7 12 1016.2 - 2.4
19/10:30am 26.0 30.3 22.0 78 2.7 ENE 2 9 1 5 1016.4 - 2.4
19/10:00am 25.9 28.6 21.4 76 3.0 ENE 9 13 5 7 1016.6 - 0.0
19/09:30am 27.2 29.9 21.3 70 3.9 ESE 9 13 5 7 1016.4 - 0.0
19/09:00am 26.5 30.8 21.9 76 3.1 S 2 7 1 4 1016.3 1016.2 0.2
19/08:30am 24.7 29.5 22.2 86 1.7 CALM 0 0 0 0 1016.1 - 0.2
19/08:00am 23.0 27.2 21.8 93 0.8 WSW 2 7 1 4 1016.0 - 0.2
19/07:30am 21.6 25.8 21.0 96 0.4 CALM 0 7 0 4 1015.7 - 0.2
19/07:00am 20.8 24.7 20.3 97 0.3 CALM 0 0 0 0 1015.6 - 0.2
19/06:30am 20.6 23.6 20.1 97 0.3 W 4 7 2 4 1015.3 - 0.2
19/06:00am 20.9 23.7 20.4 97 0.3 W 6 9 3 5 1015.1 1015.0 0.2
19/05:30am 20.9 24.1 20.4 97 0.3 WNW 4 6 2 3 1014.9 - 0.2
19/05:00am 21.1 24.3 20.6 97 0.3 W 4 9 2 5 1014.8 - 0.2
19/04:30am 21.3 25.4 20.8 97 0.3 CALM 0 0 0 0 1014.6 - 0.2
19/04:00am 21.6 25.8 21.0 96 0.4 CALM 0 0 0 0 1014.6 - 0.2
19/03:30am 21.7 26.0 21.2 97 0.3 CALM 0 0 0 0 1014.6 - 0.2
19/03:00am 21.9 26.3 21.3 96 0.4 CALM 0 2 0 1 1014.6 1014.5 0.2
19/02:30am 21.9 26.3 21.4 97 0.3 CALM 0 0 0 0 1014.7 - 0.2
19/02:00am 22.1 26.6 21.5 96 0.4 CALM 0 0 0 0 1014.8 - 0.2
19/01:30am 22.3 25.5 21.7 96 0.4 W 7 11 4 6 1014.9 - 0.2
19/01:00am 22.4 26.9 21.6 95 0.5 CALM 0 0 0 0 1015.4 - 0.2
19/12:30am 22.6 27.2 21.8 95 0.5 CALM 0 0 0 0 1015.8 - 0.2
19/12:00am 22.7 26.2 21.8 95 0.6 WSW 6 9 3 5 1016.1 1016.0 0.2
 
Date/Time
EST
Temp
°C
App
Temp
°C
Dew
Point
Rel
Hum
%
Delta-T
°C
Wind Press
QNH
hPa
Press
MSL
hPa
Rain
since 9 am
mm
Dir
 
Spd
km/h
Gust
km/h
Spd
kts
Gust
kts
18/11:30pm 22.9 26.8 21.8 93 0.7 WNW 4 7 2 4 1016.2 - 0.2
18/11:00pm 22.9 26.5 22.0 95 0.6 WSW 6 9 3 5 1016.2 - 0.2
18/10:30pm 23.2 27.8 21.8 92 0.9 CALM 0 0 0 0 1016.4 - 0.2
18/10:00pm 23.4 28.0 21.7 90 1.1 CALM 0 0 0 0 1016.5 - 0.2
18/09:30pm 23.5 26.8 21.4 88 1.4 WSW 6 9 3 5 1016.6 - 0.2
18/09:00pm 23.5 26.4 21.1 86 1.6 SW 7 13 4 7 1016.7 1016.6 0.2
18/08:30pm 23.7 27.7 21.3 86 1.6 NW 2 7 1 4 1016.5 - 0.2
18/08:00pm 23.7 26.8 21.4 87 1.5 W 7 13 4 7 1015.9 - 0.2
18/07:30pm 23.8 26.9 21.5 87 1.5 W 7 13 4 7 1015.5 - 0.2
18/07:00pm 24.4 28.9 22.2 87 1.5 W 2 7 1 4 1015.2 - 0.2
18/06:30pm 25.3 28.6 21.4 79 2.6 SSW 6 9 3 5 1014.8 - 0.2
18/06:00pm 25.5 30.0 21.6 79 2.6 CALM 0 0 0 0 1014.5 1014.4 0.2
18/05:30pm 26.2 29.3 21.1 73 3.4 S 6 9 3 5 1014.2 - 0.2
18/05:00pm 26.5 28.7 21.1 72 3.6 ESE 11 15 6 8 1013.9 - 0.2
18/04:30pm 27.2 29.9 21.3 70 3.9 SE 9 13 5 7 1013.7 - 0.2
18/04:00pm 27.3 29.6 20.6 67 4.4 ESE 9 17 5 9 1013.6 - 0.2
18/03:30pm 27.6 29.4 20.3 64 4.8 ESE 11 17 6 9 1013.5 - 0.2
18/03:00pm 27.7 29.8 20.9 66 4.5 ESE 11 17 6 9 1013.4 1013.3 0.2
18/02:30pm 27.7 29.0 20.2 63 4.9 ESE 13 19 7 10 1013.4 - 0.2
18/02:00pm 28.1 29.4 20.2 62 5.2 ESE 13 20 7 11 1013.6 - 0.2
18/01:30pm 28.2 29.3 20.5 63 5.1 ESE 15 20 8 11 1013.9 - 0.2
18/01:00pm 27.9 28.9 20.3 63 5.0 ESE 15 19 8 10 1014.1 - 0.2
18/12:30pm 28.6 30.3 21.6 66 4.7 E 15 22 8 12 1014.4 - 0.2
18/12:00pm 26.8 29.6 22.3 76 3.0 E 11 20 6 11 1014.8 1014.7 0.2
18/11:30am 26.6 28.5 22.1 76 3.0 E 15 22 8 12 1015.0 - 0.2
18/11:00am 27.8 30.2 21.5 68 4.2 ESE 11 19 6 10 1015.4 - 0.2
18/10:30am 28.3 30.8 21.1 65 4.8 ESE 9 17 5 9 1015.7 - 0.2
18/10:00am 27.6 31.0 22.7 74 3.3 SSE 9 15 5 8 1015.8 - 0.0
18/09:30am 27.2 30.2 22.0 73 3.5 S 9 15 5 8 1015.8 - 0.0
18/09:00am 25.9 29.0 22.2 80 2.5 SSE 9 11 5 6 1015.7 1015.6 4.4
18/08:30am 25.0 30.3 23.1 89 1.3 CALM 0 0 0 0 1015.6 - 4.4
18/08:00am 23.2 27.2 22.0 93 0.8 W 4 7 2 4 1015.5 - 4.4
18/07:30am 23.0 26.7 21.5 91 1.0 SW 4 11 2 6 1015.4 - 4.4
18/07:00am 22.5 27.2 22.0 97 0.3 CALM 0 7 0 4 1015.3 - 4.0
18/06:30am 22.5 27.2 22.0 97 0.3 CALM 0 0 0 0 1014.7 - 4.0
18/06:00am 22.6 27.4 22.1 97 0.3 CALM 0 0 0 0 1014.4 1014.3 4.0
18/05:30am 22.7 27.5 22.2 97 0.3 CALM 0 4 0 2 1014.2 - 4.0
18/05:00am 22.6 27.4 22.1 97 0.3 CALM 0 2 0 1 1013.9 - 4.0
18/04:30am 22.7 26.3 22.1 96 0.4 W 6 9 3 5 1013.7 - 4.0
18/04:00am 22.6 26.6 22.1 97 0.3 W 4 9 2 5 1013.8 - 4.0
18/03:30am 22.6 27.1 22.3 98 0.2 W 2 7 1 4 1013.7 - 4.0
18/03:00am 22.6 27.5 22.3 98 0.2 CALM 0 0 0 0 1013.9 1013.8 4.0
18/02:30am 22.6 27.4 22.1 97 0.3 CALM 0 6 0 3 1014.1 - 4.0
18/02:00am 22.7 27.5 22.2 97 0.3 CALM 0 0 0 0 1014.3 - 4.0
18/01:30am 22.9 27.9 22.5 98 0.3 CALM 0 2 0 1 1014.6 - 4.0
18/01:00am 23.1 28.2 22.7 98 0.3 CALM 0 2 0 1 1015.0 - 4.0
18/12:30am 23.2 27.9 22.6 96 0.4 WSW 2 7 1 4 1015.5 - 4.0
18/12:00am 23.3 27.6 21.9 92 0.9 S 2 7 1 4 1015.8 1015.7 4.0

Other Formats:

Comma delimited format used in spreadsheet applications
http://www.bom.gov.au/fwo/IDQ60801/IDQ60801.95292.axf

JavaScript Object Notation format (JSON) in row-major order
http://www.bom.gov.au/fwo/IDQ60801/IDQ60801.95292.json